createdAt,value
2023-01-19T00:01:08.815Z,15.87
2023-01-19T00:03:37.289Z,15.83
2023-01-19T00:06:07.573Z,15.78
2023-01-19T00:08:36.335Z,15.80
2023-01-19T00:11:05.325Z,15.75
2023-01-19T00:13:33.734Z,15.75
2023-01-19T00:16:03.546Z,15.74
2023-01-19T00:18:31.983Z,15.73
2023-01-19T00:21:00.894Z,15.69
2023-01-19T00:23:29.353Z,15.68
2023-01-19T00:25:59.473Z,15.65
2023-01-19T00:28:27.916Z,15.61
2023-01-19T00:30:57.274Z,15.59
2023-01-19T00:33:26.042Z,15.58
2023-01-19T00:35:57.794Z,15.56
2023-01-19T00:38:26.441Z,15.55
2023-01-19T00:40:55.393Z,15.52
2023-01-19T00:43:24.039Z,15.52
2023-01-19T00:45:53.737Z,15.49
2023-01-19T00:48:22.493Z,15.49
2023-01-19T00:50:51.553Z,15.47
2023-01-19T00:53:20.335Z,15.45
2023-01-19T00:55:49.355Z,15.43
2023-01-19T00:58:17.922Z,15.41
2023-01-19T01:00:48.137Z,15.40
2023-01-19T01:03:16.839Z,15.39
2023-01-19T01:05:45.815Z,15.38
2023-01-19T01:08:14.505Z,15.35
2023-01-19T01:10:43.483Z,15.33
2023-01-19T01:13:21.615Z,15.33
2023-01-19T01:15:52.519Z,15.30
2023-01-19T01:18:21.486Z,15.30
2023-01-19T01:20:50.570Z,15.28
2023-01-19T01:23:23.242Z,15.27
2023-01-19T01:25:52.160Z,15.25
2023-01-19T01:28:20.690Z,15.24
2023-01-19T01:30:53.136Z,15.22
2023-01-19T01:33:41.370Z,15.19
2023-01-19T01:36:11.976Z,15.18
2023-01-19T01:38:41.253Z,15.15
2023-01-19T01:41:09.947Z,15.14
2023-01-19T01:43:49.478Z,15.11
2023-01-19T01:46:20.147Z,15.11
2023-01-19T01:48:53.158Z,15.10
2023-01-19T01:51:48.300Z,15.09
2023-01-19T01:54:22.017Z,15.05
2023-01-19T01:56:55.776Z,15.00
2023-01-19T01:59:34.909Z,15.04
2023-01-19T02:02:32.036Z,15.02
2023-01-19T02:05:04.590Z,14.99
2023-01-19T02:08:00.029Z,14.97
2023-01-19T02:10:47.188Z,14.98
2023-01-19T02:13:22.185Z,14.96
2023-01-19T02:15:59.368Z,14.95
2023-01-19T02:18:29.836Z,14.92
2023-01-19T02:21:19.050Z,14.92
2023-01-19T02:23:58.288Z,14.91
2023-01-19T02:26:37.056Z,14.90
2023-01-19T02:29:11.256Z,14.89
2023-01-19T02:31:40.347Z,14.87
2023-01-19T02:34:10.961Z,14.86
2023-01-19T02:37:02.325Z,14.85
2023-01-19T02:39:43.862Z,14.84
2023-01-19T02:42:37.547Z,14.81
2023-01-19T02:45:07.216Z,14.80
2023-01-19T02:47:40.235Z,14.80
2023-01-19T02:50:36.300Z,14.78
2023-01-19T02:53:37.762Z,14.77
2023-01-19T02:56:09.367Z,14.76
2023-01-19T02:58:43.955Z,14.75
2023-01-19T03:01:36.049Z,14.74
2023-01-19T03:04:10.309Z,14.72
2023-01-19T03:06:45.600Z,14.72
2023-01-19T03:09:34.486Z,14.71
2023-01-19T03:12:10.275Z,14.71
2023-01-19T03:14:41.935Z,14.70
2023-01-19T03:17:12.275Z,14.63
2023-01-19T03:19:41.805Z,14.62
2023-01-19T03:22:17.937Z,14.67
2023-01-19T03:24:47.069Z,14.66
2023-01-19T03:27:25.617Z,14.65
2023-01-19T03:30:07.895Z,14.64
2023-01-19T03:32:39.626Z,14.64
2023-01-19T03:35:10.715Z,14.62
2023-01-19T03:37:43.358Z,14.62
2023-01-19T03:40:12.426Z,14.60
2023-01-19T03:42:42.886Z,14.59
2023-01-19T03:45:12.088Z,14.60
2023-01-19T03:47:41.116Z,14.58
2023-01-19T03:50:12.551Z,14.56
2023-01-19T03:52:41.845Z,14.55
2023-01-19T03:55:10.819Z,14.55
2023-01-19T03:57:39.895Z,14.54
2023-01-19T04:00:09.359Z,14.52
2023-01-19T04:02:55.771Z,14.53
2023-01-19T04:05:24.804Z,14.51
2023-01-19T04:07:54.158Z,14.51
2023-01-19T04:10:23.236Z,14.50
2023-01-19T04:12:57.391Z,14.50
2023-01-19T04:15:26.834Z,14.48
2023-01-19T04:17:57.385Z,14.47
2023-01-19T04:20:28.412Z,14.47
2023-01-19T04:23:00.839Z,14.47
2023-01-19T04:25:29.933Z,14.46
2023-01-19T04:27:58.553Z,14.45
2023-01-19T04:30:28.062Z,14.46
2023-01-19T04:32:57.840Z,14.46
2023-01-19T04:35:28.156Z,14.46
2023-01-19T04:37:56.806Z,14.45
2023-01-19T04:40:25.939Z,14.46
2023-01-19T04:42:54.636Z,14.48
2023-01-19T04:45:23.515Z,14.49
2023-01-19T04:47:52.077Z,14.56
2023-01-19T04:50:22.054Z,14.70
2023-01-19T04:52:50.737Z,14.76
2023-01-19T04:55:19.959Z,14.82
2023-01-19T04:57:48.557Z,14.93
2023-01-19T05:00:18.124Z,15.08
2023-01-19T05:02:46.963Z,15.18
2023-01-19T05:05:16.568Z,15.32
2023-01-19T05:07:45.616Z,15.35
2023-01-19T05:10:14.640Z,15.45
2023-01-19T05:12:43.019Z,15.57
2023-01-19T05:15:12.116Z,15.60
2023-01-19T05:17:40.600Z,15.73
2023-01-19T05:20:13.782Z,15.82
2023-01-19T05:22:48.644Z,15.90
2023-01-19T05:25:17.600Z,16.02
2023-01-19T05:27:46.053Z,16.08
2023-01-19T05:30:15.180Z,16.09
2023-01-19T05:32:44.601Z,16.22
2023-01-19T05:35:20.140Z,16.27
2023-01-19T05:37:53.408Z,16.28
2023-01-19T05:40:22.217Z,16.39
2023-01-19T05:42:50.637Z,16.36
2023-01-19T05:45:19.323Z,16.45
2023-01-19T05:47:48.051Z,16.53
2023-01-19T05:50:17.120Z,16.60
2023-01-19T05:52:45.777Z,16.70
2023-01-19T05:55:15.575Z,16.73
2023-01-19T05:57:46.223Z,16.87
2023-01-19T06:00:15.811Z,16.89
2023-01-19T06:02:44.634Z,16.96
2023-01-19T06:05:14.438Z,16.96
2023-01-19T06:07:42.775Z,17.01
2023-01-19T06:10:11.934Z,17.07
2023-01-19T06:12:43.624Z,17.17
2023-01-19T06:15:14.363Z,17.13
2023-01-19T06:17:43.171Z,17.16
2023-01-19T06:20:14.183Z,17.23
2023-01-19T06:22:42.506Z,17.22
2023-01-19T06:25:12.104Z,17.19
2023-01-19T06:27:45.201Z,17.28
2023-01-19T06:30:14.515Z,17.16
2023-01-19T06:32:42.988Z,17.13
2023-01-19T06:35:12.416Z,17.12
2023-01-19T06:37:40.874Z,16.84
2023-01-19T06:40:14.498Z,16.95
2023-01-19T06:42:43.353Z,16.91
2023-01-19T06:45:12.238Z,16.87
2023-01-19T06:47:40.707Z,16.84
2023-01-19T06:50:10.339Z,16.74
2023-01-19T06:52:42.741Z,16.70
2023-01-19T06:55:12.247Z,16.68
2023-01-19T06:57:41.056Z,16.58
2023-01-19T07:00:12.136Z,16.55
2023-01-19T07:02:43.902Z,16.47
2023-01-19T07:05:14.600Z,16.46
2023-01-19T07:07:45.248Z,16.34
2023-01-19T07:10:15.899Z,16.35
2023-01-19T07:12:46.653Z,16.30
2023-01-19T07:15:17.232Z,16.28
2023-01-19T07:17:46.670Z,16.19
2023-01-19T07:20:15.525Z,16.20
2023-01-19T07:22:46.057Z,16.15
2023-01-19T07:25:16.228Z,16.06
2023-01-19T07:27:45.570Z,16.08
2023-01-19T07:30:16.276Z,16.04
2023-01-19T07:32:44.869Z,15.98
2023-01-19T07:35:14.835Z,15.93
2023-01-19T07:37:43.325Z,15.90
2023-01-19T07:40:12.679Z,15.86
2023-01-19T07:42:48.891Z,15.83
2023-01-19T07:45:18.633Z,15.76
2023-01-19T07:47:51.336Z,15.74
2023-01-19T07:50:24.880Z,15.71
2023-01-19T07:52:54.505Z,15.68
2023-01-19T07:55:24.140Z,15.63
2023-01-19T07:57:53.156Z,15.62
2023-01-19T08:00:25.651Z,15.58
2023-01-19T08:02:58.911Z,15.54
2023-01-19T08:05:29.585Z,15.52
2023-01-19T08:07:58.626Z,15.50
2023-01-19T08:10:28.322Z,15.48
2023-01-19T08:12:57.544Z,15.45
2023-01-19T08:15:26.712Z,15.42
2023-01-19T08:17:58.002Z,15.41
2023-01-19T08:20:27.553Z,15.39
2023-01-19T08:23:00.693Z,15.36
2023-01-19T08:25:38.691Z,15.31
2023-01-19T08:28:08.185Z,15.31
2023-01-19T08:30:37.278Z,15.30
2023-01-19T08:33:08.460Z,15.26
2023-01-19T08:35:43.830Z,15.18
2023-01-19T08:38:12.585Z,15.22
2023-01-19T08:40:42.185Z,15.19
2023-01-19T08:43:13.029Z,15.16
2023-01-19T08:45:49.414Z,15.13
2023-01-19T08:48:20.455Z,15.09
2023-01-19T08:50:51.197Z,15.07
2023-01-19T08:53:21.604Z,15.06
2023-01-19T08:55:51.148Z,15.00
2023-01-19T08:58:19.704Z,15.03
2023-01-19T09:00:49.296Z,15.02
2023-01-19T09:03:18.144Z,15.01
2023-01-19T09:05:47.577Z,14.98
2023-01-19T09:08:16.475Z,14.95
2023-01-19T09:10:49.740Z,14.92
2023-01-19T09:13:19.077Z,14.90
2023-01-19T09:15:48.182Z,14.88
2023-01-19T09:18:18.621Z,14.87
2023-01-19T09:20:48.857Z,14.83
2023-01-19T09:23:19.313Z,14.81
2023-01-19T09:25:48.499Z,14.79
2023-01-19T09:28:17.918Z,14.79
2023-01-19T09:30:46.972Z,14.78
2023-01-19T09:33:16.917Z,14.78
2023-01-19T09:35:46.598Z,14.76
2023-01-19T09:38:15.543Z,14.75
2023-01-19T09:40:55.253Z,14.75
2023-01-19T09:43:27.465Z,14.74
2023-01-19T09:45:58.347Z,14.72
2023-01-19T09:48:33.504Z,14.72
2023-01-19T09:51:05.149Z,14.72
2023-01-19T09:53:53.067Z,14.71
2023-01-19T09:56:22.466Z,14.70
2023-01-19T09:58:51.559Z,14.66
2023-01-19T10:01:39.435Z,14.67
2023-01-19T10:04:19.884Z,14.66
2023-01-19T10:06:48.921Z,14.65
2023-01-19T10:09:34.562Z,14.66
2023-01-19T10:12:28.547Z,14.66
2023-01-19T10:15:04.580Z,14.64
2023-01-19T10:17:41.385Z,14.64
2023-01-19T10:20:36.768Z,14.64
2023-01-19T10:23:06.276Z,14.62
2023-01-19T10:25:34.960Z,14.62
2023-01-19T10:28:04.874Z,14.60
2023-01-19T10:30:33.485Z,14.59
2023-01-19T10:33:02.785Z,14.57
2023-01-19T10:35:31.743Z,14.57
2023-01-19T10:38:01.894Z,14.57
2023-01-19T10:40:59.023Z,14.60
2023-01-19T10:43:44.887Z,14.70
2023-01-19T10:46:34.321Z,14.83
2023-01-19T10:49:03.169Z,14.89
2023-01-19T10:51:33.298Z,14.98
2023-01-19T10:54:02.877Z,15.05
2023-01-19T10:56:38.592Z,15.15
2023-01-19T10:59:07.637Z,15.22
2023-01-19T11:01:38.219Z,15.33
2023-01-19T11:04:29.054Z,15.42
2023-01-19T11:07:16.875Z,15.50
2023-01-19T11:09:45.973Z,15.62
2023-01-19T11:12:32.935Z,15.79
2023-01-19T11:15:01.514Z,15.84
2023-01-19T11:17:30.462Z,15.88
2023-01-19T11:20:00.920Z,15.96
2023-01-19T11:22:33.165Z,16.04
2023-01-19T11:25:04.273Z,16.09
2023-01-19T11:27:35.298Z,16.12
2023-01-19T11:30:27.249Z,16.21
2023-01-19T11:32:56.608Z,16.38
2023-01-19T11:35:39.149Z,16.37
2023-01-19T11:38:17.025Z,16.59
2023-01-19T11:40:55.199Z,16.60
2023-01-19T11:43:36.592Z,16.66
2023-01-19T11:46:16.176Z,16.61
2023-01-19T11:49:26.195Z,16.69
2023-01-19T11:52:20.117Z,16.88
2023-01-19T11:55:00.593Z,16.92
2023-01-19T11:57:29.098Z,16.97
2023-01-19T12:00:03.801Z,17.03
2023-01-19T12:02:45.113Z,17.04
2023-01-19T12:05:17.138Z,17.15
2023-01-19T12:07:45.616Z,17.12
2023-01-19T12:10:28.587Z,17.15
2023-01-19T12:12:57.051Z,17.22
2023-01-19T12:15:37.637Z,17.20
2023-01-19T12:18:07.874Z,17.03
2023-01-19T12:20:53.844Z,16.97
2023-01-19T12:23:43.385Z,16.98
2023-01-19T12:26:29.090Z,16.92
2023-01-19T12:29:04.411Z,16.88
2023-01-19T12:31:35.393Z,16.85
2023-01-19T12:34:26.144Z,16.78
2023-01-19T12:36:54.946Z,16.64
2023-01-19T12:39:23.704Z,16.66
2023-01-19T12:42:15.692Z,16.58
2023-01-19T12:44:45.720Z,16.51
2023-01-19T12:47:14.387Z,16.49
2023-01-19T12:49:49.985Z,16.43
2023-01-19T12:52:41.470Z,16.34
2023-01-19T12:55:51.461Z,16.22
2023-01-19T12:58:24.245Z,16.21
2023-01-19T13:01:18.462Z,16.20
2023-01-19T13:04:04.486Z,16.13
2023-01-19T13:06:54.335Z,16.11
2023-01-19T13:09:33.640Z,16.01
2023-01-19T13:12:14.665Z,16.03
2023-01-19T13:14:43.526Z,15.99
2023-01-19T13:17:34.412Z,15.95
2023-01-19T13:20:23.585Z,15.81
2023-01-19T13:23:26.311Z,15.85
2023-01-19T13:26:02.718Z,15.81
2023-01-19T13:28:41.493Z,15.71
2023-01-19T13:31:10.428Z,15.68
2023-01-19T13:33:56.491Z,15.66
2023-01-19T13:36:36.973Z,15.67
2023-01-19T13:39:25.891Z,15.62
2023-01-19T13:41:56.951Z,15.59
2023-01-19T13:44:29.733Z,15.57
2023-01-19T13:46:59.962Z,15.54
2023-01-19T13:49:31.470Z,15.46
2023-01-19T13:52:22.743Z,15.48
2023-01-19T13:54:55.700Z,15.45
2023-01-19T13:57:41.137Z,15.37
2023-01-19T14:00:12.878Z,15.40
2023-01-19T14:03:02.596Z,15.39
2023-01-19T14:05:36.416Z,15.35
2023-01-19T14:08:13.054Z,15.33
2023-01-19T14:10:56.794Z,15.29
2023-01-19T14:13:40.286Z,15.30
2023-01-19T14:16:16.777Z,15.28
2023-01-19T14:18:45.636Z,15.23
2023-01-19T14:21:15.266Z,15.16
2023-01-19T14:23:51.152Z,15.20
2023-01-19T14:26:39.445Z,15.18
2023-01-19T14:29:18.804Z,15.17
2023-01-19T14:32:09.306Z,15.13
2023-01-19T14:34:46.314Z,15.05
2023-01-19T14:37:32.225Z,15.07
2023-01-19T14:40:13.426Z,15.04
2023-01-19T14:43:03.492Z,15.02
2023-01-19T14:45:39.435Z,14.99
2023-01-19T14:48:17.812Z,15.00
2023-01-19T14:51:02.376Z,14.99
2023-01-19T14:53:36.885Z,14.97
2023-01-19T14:56:07.028Z,14.94
2023-01-19T14:58:36.091Z,14.93
2023-01-19T15:01:06.715Z,14.91
2023-01-19T15:03:44.193Z,14.90
2023-01-19T15:06:16.017Z,14.89
2023-01-19T15:08:44.764Z,14.86
2023-01-19T15:11:17.005Z,14.85
2023-01-19T15:13:45.815Z,14.83
2023-01-19T15:16:14.921Z,14.81
2023-01-19T15:18:43.693Z,14.80
2023-01-19T15:21:19.713Z,14.77
2023-01-19T15:23:48.481Z,14.76
2023-01-19T15:26:20.981Z,14.76
2023-01-19T15:28:49.876Z,14.74
2023-01-19T15:31:23.343Z,14.74
2023-01-19T15:33:52.006Z,14.72
2023-01-19T15:36:22.055Z,14.71
2023-01-19T15:38:51.608Z,14.70
2023-01-19T15:41:30.276Z,14.66
2023-01-19T15:43:59.049Z,14.65
2023-01-19T15:46:28.110Z,14.65
2023-01-19T15:48:56.754Z,14.66
2023-01-19T15:51:27.074Z,14.67
2023-01-19T15:53:55.842Z,14.64
2023-01-19T15:56:26.819Z,14.65
2023-01-19T15:58:55.819Z,14.64
2023-01-19T16:01:35.353Z,14.60
2023-01-19T16:04:05.747Z,14.58
2023-01-19T16:06:34.819Z,14.56
2023-01-19T16:09:04.057Z,14.59
2023-01-19T16:11:33.881Z,14.64
2023-01-19T16:14:02.723Z,14.73
2023-01-19T16:16:31.781Z,14.85
2023-01-19T16:19:00.468Z,14.97
2023-01-19T16:21:30.474Z,15.09
2023-01-19T16:23:59.157Z,15.20
2023-01-19T16:26:34.653Z,15.29
2023-01-19T16:29:09.995Z,15.40
2023-01-19T16:31:41.091Z,15.48
2023-01-19T16:34:09.851Z,15.46
2023-01-19T16:36:41.133Z,15.60
2023-01-19T16:39:13.263Z,15.72
2023-01-19T16:41:43.855Z,15.78
2023-01-19T16:44:13.204Z,15.88
2023-01-19T16:46:45.368Z,15.87
2023-01-19T16:49:28.148Z,15.99
2023-01-19T16:51:58.671Z,16.07
2023-01-19T16:54:27.596Z,16.13
2023-01-19T16:56:57.866Z,16.23
2023-01-19T16:59:27.406Z,16.27
2023-01-19T17:01:57.209Z,16.35
2023-01-19T17:04:27.652Z,16.42
2023-01-19T17:06:56.589Z,16.46
2023-01-19T17:09:25.138Z,16.46
2023-01-19T17:11:53.985Z,16.59
2023-01-19T17:14:22.504Z,16.69
2023-01-19T17:16:51.335Z,16.76
2023-01-19T17:19:20.734Z,16.76
2023-01-19T17:21:50.094Z,16.76
2023-01-19T17:24:18.664Z,16.79
2023-01-19T17:26:48.926Z,16.87
2023-01-19T17:29:17.533Z,16.93
2023-01-19T17:31:46.994Z,16.96
2023-01-19T17:34:15.608Z,17.00
2023-01-19T17:36:45.036Z,17.11
2023-01-19T17:39:15.108Z,17.09
2023-01-19T17:41:45.090Z,17.18
2023-01-19T17:44:13.634Z,17.27
2023-01-19T17:46:42.419Z,17.41
2023-01-19T17:49:11.316Z,17.42
2023-01-19T17:51:40.079Z,17.45
2023-01-19T17:54:08.594Z,17.51
2023-01-19T17:56:38.893Z,17.47
2023-01-19T17:59:08.344Z,17.56
2023-01-19T18:01:40.099Z,17.57
2023-01-19T18:04:09.219Z,17.65
2023-01-19T18:06:39.688Z,17.54
2023-01-19T18:09:08.193Z,17.74
2023-01-19T18:11:38.269Z,17.75
2023-01-19T18:14:07.126Z,17.80
2023-01-19T18:16:36.206Z,17.75
2023-01-19T18:19:05.072Z,17.73
2023-01-19T18:21:35.194Z,17.77
2023-01-19T18:24:05.051Z,17.74
2023-01-19T18:26:34.691Z,17.75
2023-01-19T18:29:03.434Z,17.81
2023-01-19T18:31:32.390Z,17.82
2023-01-19T18:34:01.166Z,17.90
2023-01-19T18:36:32.171Z,17.91
2023-01-19T18:39:01.569Z,17.99
2023-01-19T18:41:31.373Z,18.00
2023-01-19T18:44:00.095Z,17.93
2023-01-19T18:46:29.010Z,18.04
2023-01-19T18:48:57.497Z,18.04
2023-01-19T18:51:26.320Z,18.14
2023-01-19T18:53:55.045Z,18.16
2023-01-19T18:56:23.984Z,18.28
2023-01-19T18:58:55.573Z,18.19
2023-01-19T19:01:40.714Z,18.15
2023-01-19T19:04:09.229Z,18.18
2023-01-19T19:06:38.006Z,18.11
2023-01-19T19:09:06.768Z,18.03
2023-01-19T19:11:35.920Z,18.03
2023-01-19T19:14:04.417Z,17.91
2023-01-19T19:16:35.843Z,17.86
2023-01-19T19:19:05.708Z,17.82
2023-01-19T19:21:34.445Z,17.73
2023-01-19T19:24:02.986Z,17.66
2023-01-19T19:26:32.914Z,17.62
2023-01-19T19:29:03.917Z,17.62
2023-01-19T19:31:33.889Z,17.62
2023-01-19T19:34:02.484Z,17.59
2023-01-19T19:36:31.957Z,17.60
2023-01-19T19:39:00.500Z,17.64
2023-01-19T19:41:29.325Z,17.74
2023-01-19T19:43:57.849Z,17.81
2023-01-19T19:46:27.717Z,17.89
2023-01-19T19:48:56.210Z,17.96
2023-01-19T19:51:27.350Z,17.93
2023-01-19T19:53:58.978Z,18.01
2023-01-19T19:56:29.870Z,18.07
2023-01-19T19:59:00.316Z,18.07
2023-01-19T20:01:32.791Z,18.05
2023-01-19T20:04:10.217Z,18.03
2023-01-19T20:06:44.886Z,17.92
2023-01-19T20:09:14.413Z,17.94
2023-01-19T20:11:44.775Z,17.95
2023-01-19T20:14:14.158Z,17.87
2023-01-19T20:16:44.107Z,17.83
2023-01-19T20:19:12.519Z,17.81
2023-01-19T20:21:42.010Z,17.79
2023-01-19T20:24:19.195Z,17.67
2023-01-19T20:26:51.262Z,17.51
2023-01-19T20:29:19.972Z,17.52
2023-01-19T20:31:55.059Z,17.44
2023-01-19T20:34:27.181Z,17.44
2023-01-19T20:36:55.973Z,17.42
2023-01-19T20:39:24.669Z,17.34
2023-01-19T20:41:53.537Z,17.38
2023-01-19T20:44:24.396Z,17.36
2023-01-19T20:46:53.677Z,17.26
2023-01-19T20:49:22.228Z,17.39
2023-01-19T20:51:52.275Z,17.48
2023-01-19T20:54:24.602Z,17.53
2023-01-19T20:56:53.823Z,17.60
2023-01-19T20:59:22.465Z,17.75
2023-01-19T21:01:51.607Z,17.76
2023-01-19T21:04:20.793Z,17.72
2023-01-19T21:06:49.582Z,17.78
2023-01-19T21:09:18.793Z,17.85
2023-01-19T21:11:47.598Z,17.83
2023-01-19T21:14:16.088Z,17.94
2023-01-19T21:16:44.956Z,17.90
2023-01-19T21:19:13.608Z,17.82
2023-01-19T21:21:42.326Z,17.84
2023-01-19T21:24:11.017Z,17.84
2023-01-19T21:26:42.565Z,17.75
2023-01-19T21:29:13.642Z,17.70
2023-01-19T21:31:42.699Z,17.67
2023-01-19T21:34:11.391Z,17.68
2023-01-19T21:36:40.418Z,17.57
2023-01-19T21:39:09.479Z,17.48
2023-01-19T21:41:40.067Z,17.43
2023-01-19T21:44:08.575Z,17.37
2023-01-19T21:46:37.491Z,17.27
2023-01-19T21:49:07.791Z,17.29
2023-01-19T21:51:37.689Z,17.28
2023-01-19T21:54:06.789Z,17.21
2023-01-19T21:56:35.996Z,17.25
2023-01-19T21:59:05.186Z,17.24
2023-01-19T22:01:34.366Z,17.28
2023-01-19T22:04:02.945Z,17.29
2023-01-19T22:06:31.171Z,17.33
2023-01-19T22:09:00.959Z,17.36
2023-01-19T22:11:30.222Z,17.33
2023-01-19T22:14:00.508Z,17.25
2023-01-19T22:16:33.541Z,17.16
2023-01-19T22:19:02.604Z,17.17
2023-01-19T22:21:33.448Z,17.10
2023-01-19T22:24:03.352Z,17.05
2023-01-19T22:26:32.396Z,16.97
2023-01-19T22:29:01.952Z,17.00
2023-01-19T22:31:31.062Z,16.94
2023-01-19T22:34:00.161Z,16.88
2023-01-19T22:36:30.339Z,16.83
2023-01-19T22:39:00.728Z,16.82
2023-01-19T22:41:34.331Z,16.74
2023-01-19T22:44:05.700Z,16.61
2023-01-19T22:46:36.037Z,16.65
2023-01-19T22:49:07.671Z,16.60
2023-01-19T22:51:36.734Z,16.56
2023-01-19T22:54:05.822Z,16.52
2023-01-19T22:56:35.527Z,16.49
2023-01-19T22:59:04.705Z,16.45
2023-01-19T23:01:39.079Z,16.39
2023-01-19T23:04:08.937Z,16.35
2023-01-19T23:06:37.763Z,16.31
2023-01-19T23:09:11.339Z,16.24
2023-01-19T23:11:41.973Z,16.25
2023-01-19T23:14:17.474Z,16.20
2023-01-19T23:16:47.386Z,16.17
2023-01-19T23:19:17.486Z,16.12
2023-01-19T23:21:46.078Z,16.10
2023-01-19T23:24:17.065Z,16.06
2023-01-19T23:26:45.598Z,16.02
2023-01-19T23:29:16.697Z,15.96
2023-01-19T23:31:47.504Z,15.97
2023-01-19T23:34:16.647Z,15.92
2023-01-19T23:36:45.544Z,15.91
2023-01-19T23:39:19.012Z,15.88
2023-01-19T23:41:47.440Z,15.85
2023-01-19T23:44:17.538Z,15.84
2023-01-19T23:46:46.280Z,15.73
2023-01-19T23:49:17.219Z,15.76
2023-01-19T23:51:45.647Z,15.74
2023-01-19T23:54:14.396Z,15.71
2023-01-19T23:56:43.005Z,15.63
2023-01-19T23:59:13.966Z,15.58
